createdAt,value
2022-11-10T00:02:54.571Z,100.00
2022-11-10T00:08:16.616Z,100.00
2022-11-10T00:14:01.279Z,100.00
2022-11-10T00:19:23.733Z,100.00
2022-11-10T00:24:45.924Z,100.00
2022-11-10T00:30:08.527Z,100.00
2022-11-10T00:35:30.622Z,100.00
2022-11-10T00:40:52.719Z,100.00
2022-11-10T00:46:15.213Z,100.00
2022-11-10T00:51:38.234Z,100.00
2022-11-10T00:57:00.564Z,100.00
2022-11-10T01:02:22.828Z,100.00
2022-11-10T01:07:45.151Z,100.00
2022-11-10T01:13:07.005Z,100.00
2022-11-10T01:18:29.152Z,100.00
2022-11-10T01:23:51.420Z,100.00
2022-11-10T01:29:13.796Z,100.00
2022-11-10T01:34:35.987Z,100.00
2022-11-10T01:39:58.308Z,100.00
2022-11-10T01:45:23.458Z,100.00
2022-11-10T01:50:47.445Z,100.00
2022-11-10T01:56:10.781Z,100.00
2022-11-10T02:01:32.797Z,100.00
2022-11-10T02:06:55.383Z,100.00
2022-11-10T02:12:37.127Z,100.00
2022-11-10T02:17:59.083Z,100.00
2022-11-10T02:23:37.203Z,100.00
2022-11-10T02:28:59.463Z,100.00
2022-11-10T02:34:21.596Z,100.00
2022-11-10T02:39:43.563Z,100.00
2022-11-10T02:45:05.939Z,100.00
2022-11-10T02:50:28.195Z,100.00
2022-11-10T02:55:50.297Z,100.00
2022-11-10T03:01:12.324Z,100.00
2022-11-10T03:06:41.434Z,100.00
2022-11-10T03:12:03.720Z,100.00
2022-11-10T03:17:26.156Z,100.00
2022-11-10T03:22:48.093Z,100.00
2022-11-10T03:28:11.350Z,100.00
2022-11-10T03:33:33.560Z,100.00
2022-11-10T03:38:55.706Z,100.00
2022-11-10T03:44:17.632Z,100.00
2022-11-10T03:49:39.806Z,100.00
2022-11-10T03:55:03.550Z,100.00
2022-11-10T04:00:25.912Z,100.00
2022-11-10T04:06:06.600Z,100.00
2022-11-10T04:11:49.074Z,100.00
2022-11-10T04:17:11.273Z,100.00
2022-11-10T04:22:52.060Z,100.00
2022-11-10T04:28:14.391Z,100.00
2022-11-10T04:33:40.060Z,100.00
2022-11-10T04:39:06.319Z,100.00
2022-11-10T04:44:30.813Z,100.00
2022-11-10T04:49:53.579Z,100.00
2022-11-10T04:55:16.529Z,100.00
2022-11-10T05:00:39.626Z,100.00
2022-11-10T05:06:01.621Z,100.00
2022-11-10T05:11:23.800Z,100.00
2022-11-10T05:16:46.138Z,100.00
2022-11-10T05:22:08.414Z,100.00
2022-11-10T05:27:30.385Z,100.00
2022-11-10T05:32:52.376Z,100.00
2022-11-10T05:38:14.478Z,100.00
2022-11-10T05:43:36.335Z,100.00
2022-11-10T05:48:58.480Z,100.00
2022-11-10T05:54:21.004Z,100.00
2022-11-10T05:59:43.098Z,100.00
2022-11-10T06:05:08.613Z,100.00
2022-11-10T06:10:31.109Z,100.00
2022-11-10T06:15:53.259Z,100.00
2022-11-10T06:21:15.704Z,100.00
2022-11-10T06:26:42.616Z,100.00
2022-11-10T06:32:05.334Z,100.00
2022-11-10T06:37:27.697Z,100.00
2022-11-10T06:42:53.338Z,100.00
2022-11-10T06:48:15.610Z,100.00
2022-11-10T06:53:37.983Z,100.00
2022-11-10T06:59:00.329Z,100.00
2022-11-10T07:04:22.646Z,100.00
2022-11-10T07:09:45.015Z,100.00
2022-11-10T07:15:07.868Z,100.00
2022-11-10T07:20:35.103Z,100.00
2022-11-10T07:25:59.733Z,100.00
2022-11-10T07:31:22.019Z,100.00
2022-11-10T07:36:44.293Z,100.00
2022-11-10T07:42:06.622Z,100.00
2022-11-10T07:47:28.894Z,100.00
2022-11-10T07:52:50.946Z,100.00
2022-11-10T07:58:15.330Z,100.00
2022-11-10T08:03:37.797Z,100.00
2022-11-10T08:08:59.726Z,100.00
2022-11-10T08:14:21.935Z,100.00
2022-11-10T08:19:44.567Z,100.00
2022-11-10T08:25:07.077Z,100.00
2022-11-10T08:30:30.019Z,100.00
2022-11-10T08:35:52.671Z,100.00
2022-11-10T08:41:16.166Z,100.00
2022-11-10T08:46:38.507Z,100.00
2022-11-10T08:52:01.385Z,100.00
2022-11-10T08:57:23.524Z,100.00
2022-11-10T09:02:45.976Z,100.00
2022-11-10T09:08:08.280Z,100.00
2022-11-10T09:13:31.243Z,100.00
2022-11-10T09:18:53.663Z,100.00
2022-11-10T09:24:15.708Z,100.00
2022-11-10T09:29:38.176Z,100.00
2022-11-10T09:35:02.393Z,100.00
2022-11-10T09:40:32.377Z,100.00
2022-11-10T09:45:57.010Z,100.00
2022-11-10T09:51:25.548Z,100.00
2022-11-10T09:56:47.615Z,100.00
2022-11-10T10:02:21.421Z,100.00
2022-11-10T10:08:02.164Z,100.00
2022-11-10T10:13:55.624Z,100.00
2022-11-10T10:19:21.449Z,100.00
2022-11-10T10:24:43.669Z,100.00
2022-11-10T10:30:17.102Z,100.00
2022-11-10T10:35:41.999Z,99.75
2022-11-10T10:41:17.181Z,99.87
2022-11-10T10:46:46.090Z,99.79
2022-11-10T10:52:13.759Z,99.62
2022-11-10T10:57:35.753Z,98.14
2022-11-10T11:03:07.065Z,98.10
2022-11-10T11:08:29.598Z,98.88
2022-11-10T11:13:52.076Z,98.26
2022-11-10T11:19:14.541Z,98.87
2022-11-10T11:25:00.423Z,98.47
2022-11-10T11:30:25.990Z,96.97
2022-11-10T11:36:23.158Z,96.67
2022-11-10T11:41:57.216Z,97.18
2022-11-10T11:47:58.559Z,97.11
2022-11-10T11:53:37.906Z,97.34
2022-11-10T11:59:58.109Z,97.60
2022-11-10T12:06:03.453Z,96.94
2022-11-10T12:11:44.688Z,97.08
2022-11-10T12:17:20.512Z,96.39
2022-11-10T12:22:53.863Z,95.75
2022-11-10T12:28:25.529Z,96.44
2022-11-10T12:33:52.160Z,95.61
2022-11-10T12:39:38.923Z,95.25
2022-11-10T12:45:05.402Z,94.78
2022-11-10T12:50:54.984Z,92.86
2022-11-10T12:56:32.067Z,92.83
2022-11-10T13:02:22.421Z,93.04
2022-11-10T13:07:48.174Z,93.00
2022-11-10T13:13:15.521Z,92.90
2022-11-10T13:18:37.564Z,91.63
2022-11-10T13:24:02.988Z,91.37
2022-11-10T13:29:58.060Z,91.76
2022-11-10T13:35:29.547Z,91.69
2022-11-10T13:40:55.421Z,91.74
2022-11-10T13:46:18.210Z,91.80
2022-11-10T13:51:51.754Z,91.45
2022-11-10T13:57:21.255Z,91.22
2022-11-10T14:03:02.665Z,91.27
2022-11-10T14:08:29.782Z,90.59
2022-11-10T14:14:03.590Z,90.61
2022-11-10T14:19:38.937Z,90.31
2022-11-10T14:25:19.945Z,90.12
2022-11-10T14:30:42.091Z,89.99
2022-11-10T14:36:06.655Z,89.90
2022-11-10T14:41:48.628Z,89.84
2022-11-10T14:47:31.481Z,89.98
2022-11-10T14:53:22.545Z,89.98
2022-11-10T14:59:01.958Z,89.98
2022-11-10T15:04:30.449Z,90.26
2022-11-10T15:10:16.128Z,90.44
2022-11-10T15:15:44.168Z,90.67
2022-11-10T15:21:11.195Z,90.77
2022-11-10T15:26:53.438Z,90.89
2022-11-10T15:32:22.218Z,91.26
2022-11-10T15:38:21.246Z,91.51
2022-11-10T15:43:48.138Z,91.86
2022-11-10T15:49:38.270Z,92.14
2022-11-10T15:55:00.597Z,92.47
2022-11-10T16:00:22.904Z,92.69
2022-11-10T16:05:45.777Z,93.15
2022-11-10T16:11:28.322Z,93.60
2022-11-10T16:16:50.791Z,93.60
2022-11-10T16:22:13.747Z,93.82
2022-11-10T16:27:36.574Z,94.07
2022-11-10T16:33:07.121Z,94.33
2022-11-10T16:38:45.128Z,94.93
2022-11-10T16:44:12.792Z,95.23
2022-11-10T16:49:38.109Z,95.81
2022-11-10T16:55:07.881Z,95.84
2022-11-10T17:00:33.932Z,96.09
2022-11-10T17:05:57.389Z,96.15
2022-11-10T17:11:19.553Z,96.02
2022-11-10T17:16:50.300Z,96.32
2022-11-10T17:22:22.300Z,96.82
2022-11-10T17:27:49.259Z,97.14
2022-11-10T17:33:18.844Z,97.40
2022-11-10T17:38:41.416Z,97.53
2022-11-10T17:44:05.910Z,97.73
2022-11-10T17:49:38.868Z,98.19
2022-11-10T17:55:10.751Z,98.04
2022-11-10T18:00:41.976Z,98.28
2022-11-10T18:06:12.092Z,98.39
2022-11-10T18:11:34.060Z,98.54
2022-11-10T18:16:58.735Z,98.79
2022-11-10T18:22:26.023Z,98.87
2022-11-10T18:27:57.384Z,99.19
2022-11-10T18:33:30.113Z,99.37
2022-11-10T18:38:56.534Z,99.31
2022-11-10T18:44:21.163Z,99.40
2022-11-10T18:49:46.651Z,99.43
2022-11-10T18:55:10.124Z,99.50
2022-11-10T19:00:37.679Z,99.54
2022-11-10T19:06:00.506Z,99.52
2022-11-10T19:11:22.946Z,99.37
2022-11-10T19:16:45.315Z,99.39
2022-11-10T19:22:09.932Z,99.30
2022-11-10T19:27:33.139Z,99.33
2022-11-10T19:32:55.570Z,99.29
2022-11-10T19:38:18.030Z,99.25
2022-11-10T19:43:47.768Z,99.12
2022-11-10T19:49:10.298Z,98.88
2022-11-10T19:54:32.950Z,98.66
2022-11-10T19:59:54.785Z,98.76
2022-11-10T20:05:34.518Z,98.85
2022-11-10T20:11:23.186Z,98.99
2022-11-10T20:16:48.609Z,99.20
2022-11-10T20:22:17.853Z,99.24
2022-11-10T20:27:40.225Z,99.62
2022-11-10T20:33:08.112Z,99.71
2022-11-10T20:38:31.203Z,99.68
2022-11-10T20:43:54.266Z,99.55
2022-11-10T20:49:18.083Z,99.68
2022-11-10T20:54:48.182Z,99.86
2022-11-10T21:00:12.427Z,99.94
2022-11-10T21:05:37.902Z,99.96
2022-11-10T21:11:06.397Z,99.98
2022-11-10T21:16:31.115Z,99.99
2022-11-10T21:21:54.907Z,100.00
2022-11-10T21:27:17.014Z,100.00
2022-11-10T21:32:48.488Z,100.00
2022-11-10T21:38:14.524Z,100.00
2022-11-10T21:43:39.858Z,100.00
2022-11-10T21:49:07.563Z,100.00
2022-11-10T21:54:31.466Z,100.00
2022-11-10T21:59:57.245Z,100.00
2022-11-10T22:05:19.366Z,100.00
2022-11-10T22:11:02.082Z,100.00
2022-11-10T22:16:48.712Z,100.00
2022-11-10T22:22:20.230Z,100.00
2022-11-10T22:27:49.237Z,100.00
2022-11-10T22:33:40.516Z,100.00
2022-11-10T22:39:22.806Z,100.00
2022-11-10T22:44:59.038Z,100.00
2022-11-10T22:50:44.841Z,100.00
2022-11-10T23:02:41.890Z,100.00
2022-11-10T23:08:17.021Z,100.00
2022-11-10T23:13:42.774Z,100.00
2022-11-10T23:19:05.795Z,100.00
2022-11-10T23:24:27.813Z,100.00
2022-11-10T23:29:56.833Z,100.00
2022-11-10T23:35:19.134Z,100.00
2022-11-10T23:40:45.570Z,100.00
2022-11-10T23:46:12.468Z,100.00
2022-11-10T23:51:34.499Z,100.00
2022-11-10T23:56:57.321Z,100.00
